createdAt,value
2022-08-03T00:02:19.367Z,51.21
2022-08-03T00:04:46.831Z,51.27
2022-08-03T00:07:14.522Z,51.42
2022-08-03T00:09:42.569Z,51.60
2022-08-03T00:12:10.246Z,51.61
2022-08-03T00:14:38.703Z,51.66
2022-08-03T00:17:06.507Z,51.67
2022-08-03T00:19:34.655Z,51.60
2022-08-03T00:22:01.902Z,51.74
2022-08-03T00:24:30.995Z,51.82
2022-08-03T00:26:58.658Z,52.06
2022-08-03T00:29:26.013Z,52.15
2022-08-03T00:32:00.229Z,52.01
2022-08-03T00:34:57.224Z,52.17
2022-08-03T00:37:17.062Z,52.34
2022-08-03T00:39:46.986Z,52.34
2022-08-03T00:42:14.657Z,52.32
2022-08-03T00:44:45.256Z,52.33
2022-08-03T00:47:12.832Z,52.38
2022-08-03T00:49:41.326Z,52.64
2022-08-03T00:52:11.154Z,52.51
2022-08-03T00:54:39.405Z,52.56
2022-08-03T00:57:07.471Z,52.66
2022-08-03T00:59:35.214Z,52.60
2022-08-03T01:02:02.912Z,52.72
2022-08-03T01:04:30.254Z,52.72
2022-08-03T01:07:13.377Z,52.74
2022-08-03T01:10:00.294Z,52.85
2022-08-03T01:13:07.686Z,52.92
2022-08-03T01:15:59.110Z,53.05
2022-08-03T01:18:45.101Z,53.13
2022-08-03T01:21:35.299Z,53.08
2022-08-03T01:24:03.051Z,53.21
2022-08-03T01:26:42.201Z,53.33
2022-08-03T01:29:09.798Z,53.35
2022-08-03T01:32:53.593Z,53.43
2022-08-03T01:34:35.282Z,53.44
2022-08-03T01:37:07.178Z,53.41
2022-08-03T01:39:39.733Z,53.44
2022-08-03T01:42:11.698Z,53.54
2022-08-03T01:44:43.462Z,53.61
2022-08-03T01:47:12.644Z,53.77
2022-08-03T01:49:45.226Z,53.75
2022-08-03T01:52:17.093Z,53.87
2022-08-03T01:54:48.502Z,53.87
2022-08-03T01:57:17.403Z,53.88
2022-08-03T01:59:48.193Z,53.94
2022-08-03T02:02:33.337Z,53.97
2022-08-03T02:05:05.631Z,53.97
2022-08-03T02:07:41.149Z,53.98
2022-08-03T02:10:11.573Z,53.93
2022-08-03T02:12:39.851Z,53.95
2022-08-03T02:15:08.235Z,54.07
2022-08-03T02:17:39.044Z,54.08
2022-08-03T02:20:11.155Z,54.16
2022-08-03T02:22:41.568Z,54.21
2022-08-03T02:25:14.046Z,54.16
2022-08-03T02:28:01.565Z,54.18
2022-08-03T02:30:38.336Z,54.22
2022-08-03T02:33:10.610Z,54.26
2022-08-03T02:35:40.741Z,54.18
2022-08-03T02:38:11.263Z,54.30
2022-08-03T02:40:40.465Z,54.29
2022-08-03T02:43:12.012Z,54.28
2022-08-03T02:45:45.813Z,54.32
2022-08-03T02:48:18.808Z,54.37
2022-08-03T02:50:48.313Z,54.40
2022-08-03T02:53:17.626Z,54.43
2022-08-03T02:55:47.524Z,54.50
2022-08-03T02:58:20.818Z,54.54
2022-08-03T03:00:51.744Z,54.59
2022-08-03T03:03:21.478Z,54.57
2022-08-03T03:05:55.790Z,54.61
2022-08-03T03:08:28.732Z,54.68
2022-08-03T03:11:00.740Z,54.80
2022-08-03T03:13:29.732Z,54.78
2022-08-03T03:16:01.287Z,54.82
2022-08-03T03:18:30.900Z,54.83
2022-08-03T03:20:59.273Z,54.83
2022-08-03T03:23:28.897Z,54.82
2022-08-03T03:25:58.692Z,54.87
2022-08-03T03:28:26.466Z,54.91
2022-08-03T03:30:54.430Z,54.93
2022-08-03T03:33:23.023Z,54.87
2022-08-03T03:35:51.641Z,54.90
2022-08-03T03:38:20.087Z,54.96
2022-08-03T03:40:48.258Z,55.04
2022-08-03T03:43:18.183Z,55.02
2022-08-03T03:45:47.284Z,55.09
2022-08-03T03:48:15.441Z,55.05
2022-08-03T03:50:43.912Z,55.08
2022-08-03T03:53:13.115Z,55.07
2022-08-03T03:55:59.348Z,55.14
2022-08-03T03:58:29.953Z,55.21
2022-08-03T04:00:57.366Z,55.18
2022-08-03T04:03:24.765Z,55.16
2022-08-03T04:06:11.479Z,55.20
2022-08-03T04:08:58.900Z,55.34
2022-08-03T04:11:39.566Z,55.39
2022-08-03T04:14:10.808Z,55.44
2022-08-03T04:16:43.823Z,55.36
2022-08-03T04:19:22.936Z,55.38
2022-08-03T04:21:57.258Z,55.36
2022-08-03T04:24:30.550Z,55.47
2022-08-03T04:27:00.984Z,55.51
2022-08-03T04:29:30.883Z,55.66
2022-08-03T04:32:00.412Z,55.71
2022-08-03T04:34:29.410Z,55.64
2022-08-03T04:37:01.461Z,55.32
2022-08-03T04:39:32.085Z,55.16
2022-08-03T04:42:08.095Z,54.91
2022-08-03T04:44:45.255Z,54.83
2022-08-03T04:47:13.612Z,54.32
2022-08-03T04:49:41.431Z,54.19
2022-08-03T04:52:10.148Z,54.52
2022-08-03T04:54:44.380Z,54.51
2022-08-03T04:57:23.069Z,54.37
2022-08-03T04:59:58.303Z,54.76
2022-08-03T05:02:31.027Z,54.70
2022-08-03T05:04:59.000Z,54.52
2022-08-03T05:07:26.254Z,53.82
2022-08-03T05:10:15.139Z,53.59
2022-08-03T05:12:47.372Z,54.08
2022-08-03T05:15:15.687Z,53.95
2022-08-03T05:17:43.307Z,53.66
2022-08-03T05:20:11.395Z,53.27
2022-08-03T05:22:40.092Z,53.06
2022-08-03T05:25:07.859Z,52.48
2022-08-03T05:27:35.805Z,52.61
2022-08-03T05:30:30.937Z,51.93
2022-08-03T05:32:53.163Z,51.08
2022-08-03T05:35:57.994Z,51.43
2022-08-03T05:38:09.238Z,51.19
2022-08-03T05:40:37.034Z,51.02
2022-08-03T05:43:04.482Z,50.52
2022-08-03T05:45:32.040Z,50.21
2022-08-03T05:47:59.913Z,49.91
2022-08-03T05:50:27.167Z,49.24
2022-08-03T05:52:57.895Z,49.05
2022-08-03T05:55:25.762Z,48.86
2022-08-03T05:57:53.023Z,48.56
2022-08-03T06:00:24.163Z,47.82
2022-08-03T06:02:53.501Z,47.50
2022-08-03T06:05:20.918Z,47.66
2022-08-03T06:07:48.385Z,47.08
2022-08-03T06:10:35.230Z,46.46
2022-08-03T06:13:04.081Z,46.25
2022-08-03T06:15:33.486Z,45.38
2022-08-03T06:18:02.250Z,44.97
2022-08-03T06:20:30.155Z,44.20
2022-08-03T06:23:01.021Z,44.84
2022-08-03T06:25:29.128Z,44.28
2022-08-03T06:27:57.133Z,43.72
2022-08-03T06:30:25.518Z,43.52
2022-08-03T06:32:52.755Z,42.99
2022-08-03T06:35:20.408Z,42.09
2022-08-03T06:37:50.476Z,42.37
2022-08-03T06:40:28.266Z,41.64
2022-08-03T06:42:57.249Z,40.88
2022-08-03T06:45:24.992Z,40.55
2022-08-03T06:48:07.134Z,40.20
2022-08-03T06:50:36.417Z,40.11
2022-08-03T06:53:05.081Z,39.32
2022-08-03T06:55:32.877Z,39.25
2022-08-03T06:58:03.444Z,39.27
2022-08-03T07:00:31.386Z,39.08
2022-08-03T07:02:59.077Z,38.70
2022-08-03T07:05:26.793Z,38.41
2022-08-03T07:07:58.856Z,37.41
2022-08-03T07:10:27.529Z,37.09
2022-08-03T07:12:56.507Z,36.44
2022-08-03T07:15:54.033Z,36.27
2022-08-03T07:18:13.389Z,36.95
2022-08-03T07:20:41.019Z,35.82
2022-08-03T07:23:09.509Z,34.91
2022-08-03T07:25:37.362Z,35.28
2022-08-03T07:28:04.918Z,35.44
2022-08-03T07:30:32.272Z,34.27
2022-08-03T07:33:00.144Z,34.81
2022-08-03T07:35:27.599Z,34.78
2022-08-03T07:37:55.222Z,33.41
2022-08-03T07:40:23.178Z,32.89
2022-08-03T07:42:54.280Z,33.92
2022-08-03T07:45:23.080Z,33.88
2022-08-03T07:47:53.218Z,32.48
2022-08-03T07:50:22.318Z,32.59
2022-08-03T07:52:52.855Z,32.81
2022-08-03T07:55:22.728Z,32.75
2022-08-03T08:01:22.307Z,31.45
2022-08-03T08:03:53.359Z,31.28
2022-08-03T08:06:21.483Z,30.54
2022-08-03T08:09:03.481Z,30.65
2022-08-03T08:11:39.743Z,30.18
2022-08-03T08:14:07.810Z,30.25
2022-08-03T08:16:35.058Z,30.31
2022-08-03T08:19:02.551Z,30.00
2022-08-03T08:21:59.818Z,30.10
2022-08-03T08:24:18.325Z,29.71
2022-08-03T08:26:47.929Z,29.65
2022-08-03T08:29:15.425Z,29.12
2022-08-03T08:31:42.939Z,28.86
2022-08-03T08:34:10.543Z,29.04
2022-08-03T08:36:37.667Z,28.98
2022-08-03T08:39:05.955Z,28.98
2022-08-03T08:41:37.586Z,28.43
2022-08-03T08:44:13.855Z,28.32
2022-08-03T08:46:41.217Z,28.23
2022-08-03T08:49:09.656Z,28.04
2022-08-03T08:51:59.695Z,28.20
2022-08-03T08:54:30.624Z,28.43
2022-08-03T08:57:12.445Z,28.12
2022-08-03T08:59:57.381Z,27.97
2022-08-03T09:02:25.551Z,28.10
2022-08-03T09:04:53.629Z,28.35
2022-08-03T09:07:21.507Z,28.19
2022-08-03T09:10:08.297Z,27.75
2022-08-03T09:12:46.418Z,28.16
2022-08-03T09:15:27.804Z,27.96
2022-08-03T09:17:57.651Z,27.98
2022-08-03T09:20:27.322Z,28.24
2022-08-03T09:22:55.796Z,28.23
2022-08-03T09:25:43.661Z,28.10
2022-08-03T09:28:33.713Z,28.19
2022-08-03T09:31:04.274Z,28.32
2022-08-03T09:33:36.041Z,28.47
2022-08-03T09:36:04.296Z,28.41
2022-08-03T09:38:31.642Z,28.29
2022-08-03T09:41:00.655Z,28.09
2022-08-03T09:43:29.249Z,28.33
2022-08-03T09:46:05.063Z,28.41
2022-08-03T09:48:34.603Z,28.46
2022-08-03T09:51:13.266Z,28.61
2022-08-03T09:53:58.758Z,28.56
2022-08-03T09:56:40.206Z,28.50
2022-08-03T09:59:10.087Z,28.49
2022-08-03T10:01:41.300Z,28.55
2022-08-03T10:04:14.831Z,28.51
2022-08-03T10:07:03.925Z,28.31
2022-08-03T10:09:33.251Z,28.28
2022-08-03T10:12:09.580Z,28.19
2022-08-03T10:14:39.297Z,28.27
2022-08-03T10:17:06.678Z,28.20
2022-08-03T10:19:34.850Z,28.09
2022-08-03T10:22:30.574Z,27.89
2022-08-03T10:25:06.977Z,27.86
2022-08-03T10:27:40.280Z,27.19
2022-08-03T10:30:11.337Z,27.61
2022-08-03T10:32:52.538Z,27.67
2022-08-03T10:35:24.051Z,27.43
2022-08-03T10:38:04.008Z,27.53
2022-08-03T10:40:48.232Z,27.45
2022-08-03T10:43:30.328Z,27.35
2022-08-03T10:46:05.017Z,27.36
2022-08-03T10:48:35.264Z,27.27
2022-08-03T10:51:05.970Z,27.34
2022-08-03T10:53:39.246Z,26.82
2022-08-03T10:56:49.835Z,26.96
2022-08-03T10:59:48.170Z,27.41
2022-08-03T11:02:16.462Z,27.49
2022-08-03T11:04:46.953Z,27.58
2022-08-03T11:07:23.517Z,27.53
2022-08-03T11:09:53.738Z,27.38
2022-08-03T11:12:31.297Z,27.41
2022-08-03T11:15:03.423Z,27.54
2022-08-03T11:17:32.510Z,27.86
2022-08-03T11:20:00.580Z,27.75
2022-08-03T11:22:52.154Z,27.87
2022-08-03T11:25:53.662Z,27.96
2022-08-03T11:28:34.071Z,28.01
2022-08-03T11:31:48.875Z,28.00
2022-08-03T11:34:16.694Z,28.28
2022-08-03T11:37:20.069Z,28.35
2022-08-03T11:39:53.099Z,27.98
2022-08-03T11:42:26.606Z,28.29
2022-08-03T11:44:57.266Z,28.28
2022-08-03T11:47:28.022Z,28.31
2022-08-03T11:50:00.984Z,28.33
2022-08-03T11:52:36.767Z,28.09
2022-08-03T11:55:13.975Z,28.37
2022-08-03T11:59:11.284Z,28.19
2022-08-03T12:00:36.263Z,28.26
2022-08-03T12:03:13.359Z,28.59
2022-08-03T12:05:51.167Z,28.32
2022-08-03T12:08:33.736Z,28.24
2022-08-03T12:11:06.768Z,28.16
2022-08-03T12:14:05.774Z,28.49
2022-08-03T12:16:38.326Z,28.51
2022-08-03T12:19:08.437Z,28.35
2022-08-03T12:21:57.402Z,28.08
2022-08-03T12:24:28.102Z,28.16
2022-08-03T12:26:59.336Z,28.01
2022-08-03T12:29:29.348Z,28.16
2022-08-03T12:31:57.829Z,28.34
2022-08-03T12:34:47.439Z,28.49
2022-08-03T12:37:23.377Z,28.45
2022-08-03T12:40:03.577Z,28.57
2022-08-03T12:42:36.784Z,28.56
2022-08-03T12:45:24.038Z,28.58
2022-08-03T12:48:00.769Z,28.54
2022-08-03T12:50:33.357Z,28.51
2022-08-03T12:53:07.927Z,28.59
2022-08-03T12:55:56.353Z,28.62
2022-08-03T12:58:33.445Z,28.76
2022-08-03T13:01:05.177Z,28.58
2022-08-03T13:03:46.002Z,28.43
2022-08-03T13:06:22.873Z,28.50
2022-08-03T13:09:02.379Z,28.67
2022-08-03T13:11:58.079Z,28.39
2022-08-03T13:14:20.465Z,28.57
2022-08-03T13:16:49.128Z,28.58
2022-08-03T13:19:16.457Z,28.67
2022-08-03T13:22:03.527Z,28.55
2022-08-03T13:24:33.346Z,28.76
2022-08-03T13:28:00.937Z,28.77
2022-08-03T13:29:50.146Z,28.63
2022-08-03T13:32:20.782Z,28.68
2022-08-03T13:34:49.404Z,28.77
2022-08-03T13:37:18.361Z,28.64
2022-08-03T13:39:48.246Z,28.65
2022-08-03T13:42:27.923Z,28.87
2022-08-03T13:44:55.574Z,28.64
2022-08-03T13:47:23.178Z,28.72
2022-08-03T13:49:54.289Z,28.86
2022-08-03T13:52:32.368Z,28.75
2022-08-03T13:55:00.431Z,28.85
2022-08-03T13:58:03.732Z,28.87
2022-08-03T14:00:27.280Z,28.85
2022-08-03T14:03:16.150Z,28.84
2022-08-03T14:05:48.188Z,28.90
2022-08-03T14:08:16.537Z,28.88
2022-08-03T14:10:44.882Z,28.68
2022-08-03T14:13:16.976Z,28.97
2022-08-03T14:15:49.982Z,29.06
2022-08-03T14:18:27.774Z,28.77
2022-08-03T14:21:01.992Z,28.96
2022-08-03T14:23:33.661Z,28.83
2022-08-03T14:26:01.450Z,28.82
2022-08-03T14:28:29.793Z,28.83
2022-08-03T14:30:57.557Z,28.98
2022-08-03T14:33:25.230Z,28.87
2022-08-03T14:35:53.291Z,29.00
2022-08-03T14:38:21.288Z,29.03
2022-08-03T14:40:50.124Z,28.96
2022-08-03T14:43:18.409Z,29.11
2022-08-03T14:45:46.056Z,28.98
2022-08-03T14:50:29.531Z,28.77
2022-08-03T14:51:01.359Z,28.87
2022-08-03T14:53:29.934Z,28.98
2022-08-03T14:55:57.422Z,29.15
2022-08-03T14:58:27.785Z,28.95
2022-08-03T15:00:55.821Z,29.08
2022-08-03T15:03:25.227Z,29.18
2022-08-03T15:05:54.639Z,28.97
2022-08-03T15:08:23.978Z,29.11
2022-08-03T15:10:52.229Z,28.98
2022-08-03T15:13:22.662Z,29.17
2022-08-03T15:15:51.491Z,29.47
2022-08-03T15:18:19.837Z,29.46
2022-08-03T15:20:51.297Z,29.43
2022-08-03T15:23:19.203Z,29.26
2022-08-03T15:26:02.348Z,29.27
2022-08-03T15:28:37.285Z,29.33
2022-08-03T15:31:06.537Z,29.22
2022-08-03T15:33:35.348Z,29.32
2022-08-03T15:36:04.346Z,29.52
2022-08-03T15:38:31.637Z,29.58
2022-08-03T15:40:59.444Z,29.52
2022-08-03T15:43:26.960Z,29.74
2022-08-03T15:46:26.584Z,29.64
2022-08-03T15:48:43.135Z,29.36
2022-08-03T15:51:10.671Z,29.53
2022-08-03T15:53:38.592Z,29.47
2022-08-03T15:56:13.263Z,29.50
2022-08-03T15:59:11.424Z,29.64
2022-08-03T16:01:36.183Z,29.67
2022-08-03T16:04:10.269Z,29.67
2022-08-03T16:06:42.541Z,29.66
2022-08-03T16:09:23.471Z,29.68
2022-08-03T16:11:59.128Z,29.80
2022-08-03T16:14:34.359Z,29.77
2022-08-03T16:17:05.925Z,30.12
2022-08-03T16:19:33.940Z,29.91
2022-08-03T16:22:03.571Z,29.88
2022-08-03T16:24:31.890Z,29.97
2022-08-03T16:27:00.454Z,30.01
2022-08-03T16:29:28.467Z,30.14
2022-08-03T16:31:57.925Z,30.13
2022-08-03T16:34:25.882Z,30.09
2022-08-03T16:36:54.245Z,30.13
2022-08-03T16:39:22.990Z,30.00
2022-08-03T16:41:54.143Z,30.31
2022-08-03T16:44:30.967Z,30.27
2022-08-03T16:46:59.689Z,30.36
2022-08-03T16:49:53.133Z,30.40
2022-08-03T16:52:16.872Z,30.37
2022-08-03T16:54:52.718Z,30.33
2022-08-03T16:57:58.903Z,30.37
2022-08-03T17:00:12.159Z,30.40
2022-08-03T17:03:25.589Z,30.40
2022-08-03T17:06:10.384Z,30.49
2022-08-03T17:09:10.284Z,30.30
2022-08-03T17:11:57.951Z,30.48
2022-08-03T17:14:49.646Z,30.51
2022-08-03T17:17:47.641Z,30.59
2022-08-03T17:20:58.120Z,30.81
2022-08-03T17:24:01.073Z,30.94
2022-08-03T17:27:08.869Z,31.03
2022-08-03T17:30:12.141Z,31.13
2022-08-03T17:33:20.225Z,31.36
2022-08-03T17:36:06.497Z,31.42
2022-08-03T17:39:27.021Z,31.71
2022-08-03T17:42:30.009Z,31.70
2022-08-03T17:45:06.766Z,32.03
2022-08-03T17:47:43.653Z,31.89
2022-08-03T17:50:24.031Z,31.99
2022-08-03T17:53:15.362Z,32.20
2022-08-03T17:56:40.717Z,32.31
2022-08-03T17:59:51.336Z,32.49
2022-08-03T18:02:55.486Z,32.50
2022-08-03T18:06:10.347Z,32.66
2022-08-03T18:08:36.970Z,32.87
2022-08-03T18:11:14.424Z,32.89
2022-08-03T18:14:05.800Z,32.94
2022-08-03T18:16:52.057Z,33.24
2022-08-03T18:20:02.008Z,33.24
2022-08-03T18:22:11.903Z,33.29
2022-08-03T18:24:43.650Z,33.41
2022-08-03T18:27:15.571Z,33.57
2022-08-03T18:29:45.881Z,33.70
2022-08-03T18:32:26.324Z,33.82
2022-08-03T18:35:00.769Z,33.97
2022-08-03T18:37:29.848Z,34.05
2022-08-03T18:40:03.938Z,34.15
2022-08-03T18:42:54.736Z,34.30
2022-08-03T18:45:57.328Z,34.47
2022-08-03T18:49:13.560Z,34.38
2022-08-03T18:51:56.420Z,34.57
2022-08-03T18:54:58.852Z,34.61
2022-08-03T19:00:24.982Z,35.03
2022-08-03T19:03:20.619Z,35.00
2022-08-03T19:06:19.375Z,35.15
2022-08-03T19:09:15.627Z,35.32
2022-08-03T19:12:14.281Z,35.41
2022-08-03T19:14:44.339Z,35.47
2022-08-03T19:17:22.056Z,35.54
2022-08-03T19:20:05.825Z,35.45
2022-08-03T19:22:36.608Z,35.71
2022-08-03T19:25:07.412Z,35.87
2022-08-03T19:27:49.627Z,35.90
2022-08-03T19:30:39.016Z,36.00
2022-08-03T19:33:47.102Z,36.13
2022-08-03T19:36:28.348Z,36.22
2022-08-03T19:38:58.755Z,36.41
2022-08-03T19:41:42.103Z,36.60
2022-08-03T19:44:20.313Z,36.52
2022-08-03T19:47:00.399Z,36.52
2022-08-03T19:49:59.990Z,36.66
2022-08-03T19:52:31.533Z,36.78
2022-08-03T19:55:01.883Z,36.74
2022-08-03T19:57:34.203Z,36.93
2022-08-03T20:00:10.743Z,37.02
2022-08-03T20:03:04.929Z,36.95
2022-08-03T20:06:22.459Z,37.36
2022-08-03T20:09:13.472Z,37.33
2022-08-03T20:15:45.534Z,37.70
2022-08-03T20:18:32.720Z,37.78
2022-08-03T20:30:05.290Z,38.07
2022-08-03T20:32:29.744Z,38.14
2022-08-03T20:34:58.663Z,38.45
2022-08-03T20:37:26.532Z,38.65
2022-08-03T20:39:59.739Z,38.84
2022-08-03T20:42:27.040Z,38.96
2022-08-03T20:45:04.383Z,38.97
2022-08-03T20:47:36.543Z,39.04
2022-08-03T20:50:10.583Z,39.09
2022-08-03T20:52:49.310Z,39.01
2022-08-03T20:55:47.136Z,39.31
2022-08-03T20:58:09.918Z,39.41
2022-08-03T21:00:39.280Z,39.43
2022-08-03T21:03:08.973Z,39.48
2022-08-03T21:08:37.634Z,39.54
2022-08-03T21:11:18.809Z,39.78
2022-08-03T21:13:08.028Z,39.38
2022-08-03T21:13:55.144Z,39.68
2022-08-03T21:16:27.428Z,39.84
2022-08-03T21:18:58.298Z,39.72
2022-08-03T21:21:31.352Z,40.07
2022-08-03T21:24:00.122Z,40.10
2022-08-03T21:26:33.424Z,40.29
2022-08-03T21:29:02.173Z,40.40
2022-08-03T21:31:30.027Z,40.59
2022-08-03T21:34:01.176Z,40.81
2022-08-03T21:36:32.875Z,41.06
2022-08-03T21:39:01.059Z,41.04
2022-08-03T21:41:31.601Z,41.26
2022-08-03T21:44:00.523Z,41.18
2022-08-03T21:46:40.449Z,41.14
2022-08-03T21:50:04.978Z,41.38
2022-08-03T21:52:02.620Z,41.24
2022-08-03T21:54:35.899Z,41.36
2022-08-03T21:57:08.587Z,41.52
2022-08-03T21:59:39.970Z,41.51
2022-08-03T22:02:24.009Z,41.55
2022-08-03T22:04:56.298Z,41.72
2022-08-03T22:07:27.403Z,41.76
2022-08-03T22:09:56.238Z,41.82
2022-08-03T22:12:26.072Z,41.91
2022-08-03T22:15:01.231Z,41.86
2022-08-03T22:17:55.330Z,42.24
2022-08-03T22:20:20.936Z,42.15
2022-08-03T22:22:55.782Z,42.19
2022-08-03T22:25:29.359Z,42.32
2022-08-03T22:28:00.574Z,42.52
2022-08-03T22:30:31.403Z,42.34
2022-08-03T22:33:00.055Z,42.54
2022-08-03T22:35:28.734Z,42.56
2022-08-03T22:37:58.290Z,42.58
2022-08-03T22:40:27.846Z,42.63
2022-08-03T22:42:56.478Z,42.83
2022-08-03T22:46:07.647Z,42.83
2022-08-03T22:48:14.985Z,42.87
2022-08-03T22:50:44.281Z,42.99
2022-08-03T22:53:21.163Z,43.20
2022-08-03T22:55:49.870Z,43.19
2022-08-03T22:58:20.402Z,43.14
2022-08-03T23:00:58.282Z,43.15
2022-08-03T23:04:00.924Z,43.27
2022-08-03T23:06:21.530Z,43.28
2022-08-03T23:08:50.272Z,43.48
2022-08-03T23:11:18.237Z,43.53
2022-08-03T23:13:52.241Z,43.69
2022-08-03T23:16:29.706Z,43.70
2022-08-03T23:18:59.609Z,43.80
2022-08-03T23:22:00.702Z,43.84
2022-08-03T23:24:26.109Z,43.95
2022-08-03T23:26:58.944Z,43.91
2022-08-03T23:29:29.150Z,44.03
2022-08-03T23:31:58.976Z,44.02
2022-08-03T23:34:47.215Z,44.28
2022-08-03T23:37:16.990Z,44.27
2022-08-03T23:39:47.414Z,44.41
2022-08-03T23:42:17.745Z,44.50
2022-08-03T23:44:46.233Z,44.53
2022-08-03T23:47:16.482Z,44.49
2022-08-03T23:49:44.781Z,44.60
2022-08-03T23:52:24.174Z,44.71
2022-08-03T23:55:04.004Z,44.81
2022-08-03T23:57:53.141Z,44.90
